sensor_id;sensor_type;location;lat;lon;timestamp;P1;durP1;ratioP1;P2;durP2;ratioP2
35715;SDS011;21840;44.920;8.616;2023-03-03T00:00:48;22.00;;;15.57;;
35715;SDS011;21840;44.920;8.616;2023-03-03T00:03:15;22.02;;;14.95;;
35715;SDS011;21840;44.920;8.616;2023-03-03T00:05:43;27.13;;;15.68;;
35715;SDS011;21840;44.920;8.616;2023-03-03T00:08:09;25.45;;;15.55;;
35715;SDS011;21840;44.920;8.616;2023-03-03T00:10:35;22.98;;;15.68;;
35715;SDS011;21840;44.920;8.616;2023-03-03T00:13:01;24.27;;;15.55;;
35715;SDS011;21840;44.920;8.616;2023-03-03T00:15:26;26.02;;;15.52;;
35715;SDS011;21840;44.920;8.616;2023-03-03T00:17:54;22.15;;;14.65;;
35715;SDS011;21840;44.920;8.616;2023-03-03T00:22:57;24.23;;;15.57;;
35715;SDS011;21840;44.920;8.616;2023-03-03T00:25:37;22.15;;;15.07;;
35715;SDS011;21840;44.920;8.616;2023-03-03T00:28:15;23.00;;;15.20;;
35715;SDS011;21840;44.920;8.616;2023-03-03T00:30:43;22.80;;;15.02;;
35715;SDS011;21840;44.920;8.616;2023-03-03T00:33:42;23.13;;;15.20;;
35715;SDS011;21840;44.920;8.616;2023-03-03T00:36:21;24.13;;;15.75;;
35715;SDS011;21840;44.920;8.616;2023-03-03T00:38:53;23.83;;;15.18;;
35715;SDS011;21840;44.920;8.616;2023-03-03T00:41:24;25.60;;;15.55;;
35715;SDS011;21840;44.920;8.616;2023-03-03T00:43:52;22.45;;;15.23;;
35715;SDS011;21840;44.920;8.616;2023-03-03T00:46:19;23.15;;;14.50;;
35715;SDS011;21840;44.920;8.616;2023-03-03T00:48:46;21.63;;;14.32;;
35715;SDS011;21840;44.920;8.616;2023-03-03T00:51:27;24.13;;;15.30;;
35715;SDS011;21840;44.920;8.616;2023-03-03T00:53:54;22.20;;;14.43;;
35715;SDS011;21840;44.920;8.616;2023-03-03T00:56:20;28.27;;;15.63;;
35715;SDS011;21840;44.920;8.616;2023-03-03T00:58:47;24.90;;;15.73;;
35715;SDS011;21840;44.920;8.616;2023-03-03T01:01:14;22.35;;;14.85;;
35715;SDS011;21840;44.920;8.616;2023-03-03T01:03:45;27.77;;;16.17;;
35715;SDS011;21840;44.920;8.616;2023-03-03T01:06:11;27.42;;;17.40;;
35715;SDS011;21840;44.920;8.616;2023-03-03T01:08:37;25.10;;;16.23;;
35715;SDS011;21840;44.920;8.616;2023-03-03T01:11:03;25.45;;;15.48;;
35715;SDS011;21840;44.920;8.616;2023-03-03T01:13:33;25.55;;;15.00;;
35715;SDS011;21840;44.920;8.616;2023-03-03T01:16:00;23.05;;;15.75;;
35715;SDS011;21840;44.920;8.616;2023-03-03T01:18:27;21.88;;;14.23;;
35715;SDS011;21840;44.920;8.616;2023-03-03T01:20:54;26.20;;;14.73;;
35715;SDS011;21840;44.920;8.616;2023-03-03T01:23:19;29.42;;;15.85;;
35715;SDS011;21840;44.920;8.616;2023-03-03T01:25:45;24.95;;;15.20;;
35715;SDS011;21840;44.920;8.616;2023-03-03T01:28:10;30.08;;;16.17;;
35715;SDS011;21840;44.920;8.616;2023-03-03T01:30:37;26.73;;;15.82;;
35715;SDS011;21840;44.920;8.616;2023-03-03T01:33:03;24.33;;;15.40;;
35715;SDS011;21840;44.920;8.616;2023-03-03T01:35:28;21.48;;;14.23;;
35715;SDS011;21840;44.920;8.616;2023-03-03T01:37:55;24.20;;;15.65;;
35715;SDS011;21840;44.920;8.616;2023-03-03T01:40:22;23.95;;;15.85;;
35715;SDS011;21840;44.920;8.616;2023-03-03T01:42:52;23.45;;;15.82;;
35715;SDS011;21840;44.920;8.616;2023-03-03T01:45:19;27.48;;;14.60;;
35715;SDS011;21840;44.920;8.616;2023-03-03T01:47:46;23.25;;;14.57;;
35715;SDS011;21840;44.920;8.616;2023-03-03T01:51:02;25.27;;;15.23;;
35715;SDS011;21840;44.920;8.616;2023-03-03T01:53:10;23.30;;;15.32;;
35715;SDS011;21840;44.920;8.616;2023-03-03T01:55:40;24.08;;;14.75;;
35715;SDS011;21840;44.920;8.616;2023-03-03T01:58:07;21.05;;;14.80;;
35715;SDS011;21840;44.920;8.616;2023-03-03T02:00:39;23.05;;;15.70;;
35715;SDS011;21840;44.920;8.616;2023-03-03T02:03:08;27.15;;;15.50;;
35715;SDS011;21840;44.920;8.616;2023-03-03T02:05:35;26.45;;;14.77;;
35715;SDS011;21840;44.920;8.616;2023-03-03T02:08:01;29.95;;;16.83;;
35715;SDS011;21840;44.920;8.616;2023-03-03T02:10:28;36.90;;;18.10;;
35715;SDS011;21840;44.920;8.616;2023-03-03T02:12:55;26.17;;;15.75;;
35715;SDS011;21840;44.920;8.616;2023-03-03T02:17:47;32.60;;;17.65;;
35715;SDS011;21840;44.920;8.616;2023-03-03T02:22:45;25.45;;;16.67;;
35715;SDS011;21840;44.920;8.616;2023-03-03T02:25:18;27.38;;;16.30;;
35715;SDS011;21840;44.920;8.616;2023-03-03T02:27:51;29.52;;;16.58;;
35715;SDS011;21840;44.920;8.616;2023-03-03T02:30:18;29.95;;;17.52;;
35715;SDS011;21840;44.920;8.616;2023-03-03T02:32:45;26.88;;;16.77;;
35715;SDS011;21840;44.920;8.616;2023-03-03T02:35:25;31.33;;;17.00;;
35715;SDS011;21840;44.920;8.616;2023-03-03T02:37:58;25.30;;;16.35;;
35715;SDS011;21840;44.920;8.616;2023-03-03T02:40:35;32.38;;;16.42;;
35715;SDS011;21840;44.920;8.616;2023-03-03T02:43:04;28.35;;;16.65;;
35715;SDS011;21840;44.920;8.616;2023-03-03T02:45:31;27.20;;;17.20;;
35715;SDS011;21840;44.920;8.616;2023-03-03T02:47:56;27.30;;;15.93;;
35715;SDS011;21840;44.920;8.616;2023-03-03T02:50:22;27.88;;;15.20;;
35715;SDS011;21840;44.920;8.616;2023-03-03T02:52:48;24.58;;;15.10;;
35715;SDS011;21840;44.920;8.616;2023-03-03T02:55:13;23.98;;;13.68;;
35715;SDS011;21840;44.920;8.616;2023-03-03T02:57:39;24.00;;;14.63;;
35715;SDS011;21840;44.920;8.616;2023-03-03T03:00:04;23.90;;;14.48;;
35715;SDS011;21840;44.920;8.616;2023-03-03T03:02:31;20.50;;;13.73;;
35715;SDS011;21840;44.920;8.616;2023-03-03T03:04:56;23.65;;;14.18;;
35715;SDS011;21840;44.920;8.616;2023-03-03T03:07:23;23.88;;;14.32;;
35715;SDS011;21840;44.920;8.616;2023-03-03T03:09:48;25.70;;;15.38;;
35715;SDS011;21840;44.920;8.616;2023-03-03T03:12:14;21.55;;;14.27;;
35715;SDS011;21840;44.920;8.616;2023-03-03T03:14:40;22.38;;;14.00;;
35715;SDS011;21840;44.920;8.616;2023-03-03T03:17:06;20.17;;;13.60;;
35715;SDS011;21840;44.920;8.616;2023-03-03T03:19:31;22.65;;;14.45;;
35715;SDS011;21840;44.920;8.616;2023-03-03T03:22:00;22.52;;;14.63;;
35715;SDS011;21840;44.920;8.616;2023-03-03T03:24:26;22.02;;;14.02;;
35715;SDS011;21840;44.920;8.616;2023-03-03T03:26:57;21.65;;;14.45;;
35715;SDS011;21840;44.920;8.616;2023-03-03T03:29:24;22.17;;;13.73;;
35715;SDS011;21840;44.920;8.616;2023-03-03T03:31:49;21.48;;;14.18;;
35715;SDS011;21840;44.920;8.616;2023-03-03T03:34:15;23.02;;;14.25;;
35715;SDS011;21840;44.920;8.616;2023-03-03T03:36:42;22.80;;;14.90;;
35715;SDS011;21840;44.920;8.616;2023-03-03T03:39:09;25.45;;;15.93;;
35715;SDS011;21840;44.920;8.616;2023-03-03T03:41:38;36.17;;;16.33;;
35715;SDS011;21840;44.920;8.616;2023-03-03T03:44:05;22.85;;;14.93;;
35715;SDS011;21840;44.920;8.616;2023-03-03T03:46:30;27.52;;;15.05;;
35715;SDS011;21840;44.920;8.616;2023-03-03T03:48:56;27.00;;;16.23;;
35715;SDS011;21840;44.920;8.616;2023-03-03T03:51:22;25.85;;;15.50;;
35715;SDS011;21840;44.920;8.616;2023-03-03T03:53:47;25.38;;;15.23;;
35715;SDS011;21840;44.920;8.616;2023-03-03T03:56:13;28.23;;;16.10;;
35715;SDS011;21840;44.920;8.616;2023-03-03T03:58:40;26.88;;;15.48;;
35715;SDS011;21840;44.920;8.616;2023-03-03T04:01:07;25.10;;;14.93;;
35715;SDS011;21840;44.920;8.616;2023-03-03T04:03:38;28.65;;;13.95;;
35715;SDS011;21840;44.920;8.616;2023-03-03T04:06:08;25.27;;;14.07;;
35715;SDS011;21840;44.920;8.616;2023-03-03T04:08:33;26.77;;;16.02;;
35715;SDS011;21840;44.920;8.616;2023-03-03T04:10:59;24.33;;;15.70;;
35715;SDS011;21840;44.920;8.616;2023-03-03T04:13:25;26.40;;;15.73;;
35715;SDS011;21840;44.920;8.616;2023-03-03T04:15:53;26.00;;;16.30;;
35715;SDS011;21840;44.920;8.616;2023-03-03T04:18:19;28.88;;;15.35;;
35715;SDS011;21840;44.920;8.616;2023-03-03T04:20:45;28.08;;;16.17;;
35715;SDS011;21840;44.920;8.616;2023-03-03T04:23:10;24.52;;;16.05;;
35715;SDS011;21840;44.920;8.616;2023-03-03T04:25:37;26.85;;;15.65;;
35715;SDS011;21840;44.920;8.616;2023-03-03T04:28:10;25.17;;;15.63;;
35715;SDS011;21840;44.920;8.616;2023-03-03T04:30:37;24.33;;;14.98;;
35715;SDS011;21840;44.920;8.616;2023-03-03T04:33:02;22.52;;;14.57;;
35715;SDS011;21840;44.920;8.616;2023-03-03T04:35:30;25.52;;;14.90;;
35715;SDS011;21840;44.920;8.616;2023-03-03T04:37:56;26.98;;;15.43;;
35715;SDS011;21840;44.920;8.616;2023-03-03T04:40:22;27.48;;;15.70;;
35715;SDS011;21840;44.920;8.616;2023-03-03T04:42:49;25.25;;;14.82;;
35715;SDS011;21840;44.920;8.616;2023-03-03T04:45:15;22.55;;;14.07;;
35715;SDS011;21840;44.920;8.616;2023-03-03T04:47:41;25.20;;;14.43;;
35715;SDS011;21840;44.920;8.616;2023-03-03T04:50:06;22.75;;;14.63;;
35715;SDS011;21840;44.920;8.616;2023-03-03T04:52:33;23.20;;;14.02;;
35715;SDS011;21840;44.920;8.616;2023-03-03T04:55:00;26.27;;;15.30;;
35715;SDS011;21840;44.920;8.616;2023-03-03T04:57:25;23.35;;;13.60;;
35715;SDS011;21840;44.920;8.616;2023-03-03T04:59:52;24.50;;;14.57;;
35715;SDS011;21840;44.920;8.616;2023-03-03T05:02:18;25.50;;;16.17;;
35715;SDS011;21840;44.920;8.616;2023-03-03T05:04:45;29.33;;;15.65;;
35715;SDS011;21840;44.920;8.616;2023-03-03T05:07:10;28.80;;;16.45;;
35715;SDS011;21840;44.920;8.616;2023-03-03T05:09:35;25.33;;;15.77;;
35715;SDS011;21840;44.920;8.616;2023-03-03T05:12:02;26.25;;;14.60;;
35715;SDS011;21840;44.920;8.616;2023-03-03T05:14:27;28.70;;;15.82;;
35715;SDS011;21840;44.920;8.616;2023-03-03T05:16:53;29.52;;;15.52;;
35715;SDS011;21840;44.920;8.616;2023-03-03T05:19:19;25.90;;;17.00;;
35715;SDS011;21840;44.920;8.616;2023-03-03T05:21:44;24.70;;;16.05;;
35715;SDS011;21840;44.920;8.616;2023-03-03T05:24:10;27.65;;;16.05;;
35715;SDS011;21840;44.920;8.616;2023-03-03T05:26:37;24.65;;;16.27;;
35715;SDS011;21840;44.920;8.616;2023-03-03T05:29:04;25.42;;;16.30;;
35715;SDS011;21840;44.920;8.616;2023-03-03T05:31:30;28.67;;;15.43;;
35715;SDS011;21840;44.920;8.616;2023-03-03T05:33:55;23.95;;;15.43;;
35715;SDS011;21840;44.920;8.616;2023-03-03T05:36:21;26.85;;;16.58;;
35715;SDS011;21840;44.920;8.616;2023-03-03T05:38:46;29.52;;;15.70;;
35715;SDS011;21840;44.920;8.616;2023-03-03T05:41:12;23.02;;;15.70;;
35715;SDS011;21840;44.920;8.616;2023-03-03T05:43:37;30.17;;;17.48;;
35715;SDS011;21840;44.920;8.616;2023-03-03T05:46:03;26.02;;;16.58;;
35715;SDS011;21840;44.920;8.616;2023-03-03T05:48:29;30.02;;;17.67;;
35715;SDS011;21840;44.920;8.616;2023-03-03T05:50:56;24.35;;;15.95;;
35715;SDS011;21840;44.920;8.616;2023-03-03T05:53:23;29.55;;;17.35;;
35715;SDS011;21840;44.920;8.616;2023-03-03T05:55:49;27.15;;;17.17;;
35715;SDS011;21840;44.920;8.616;2023-03-03T05:58:15;30.80;;;17.80;;
35715;SDS011;21840;44.920;8.616;2023-03-03T06:00:40;32.33;;;18.08;;
35715;SDS011;21840;44.920;8.616;2023-03-03T06:03:05;38.20;;;19.88;;
35715;SDS011;21840;44.920;8.616;2023-03-03T06:05:31;31.17;;;17.02;;
35715;SDS011;21840;44.920;8.616;2023-03-03T06:07:56;26.58;;;16.70;;
35715;SDS011;21840;44.920;8.616;2023-03-03T06:10:22;30.88;;;17.60;;
35715;SDS011;21840;44.920;8.616;2023-03-03T06:12:52;29.25;;;18.42;;
35715;SDS011;21840;44.920;8.616;2023-03-03T06:15:19;30.90;;;16.67;;
35715;SDS011;21840;44.920;8.616;2023-03-03T06:17:46;24.83;;;16.52;;
35715;SDS011;21840;44.920;8.616;2023-03-03T06:20:11;29.30;;;17.73;;
35715;SDS011;21840;44.920;8.616;2023-03-03T06:22:37;34.00;;;17.52;;
35715;SDS011;21840;44.920;8.616;2023-03-03T06:25:02;27.92;;;16.73;;
35715;SDS011;21840;44.920;8.616;2023-03-03T06:27:28;34.95;;;18.55;;
35715;SDS011;21840;44.920;8.616;2023-03-03T06:29:54;33.05;;;17.88;;
35715;SDS011;21840;44.920;8.616;2023-03-03T06:32:19;32.40;;;18.38;;
35715;SDS011;21840;44.920;8.616;2023-03-03T06:34:45;29.77;;;18.10;;
35715;SDS011;21840;44.920;8.616;2023-03-03T06:37:10;30.27;;;18.08;;
35715;SDS011;21840;44.920;8.616;2023-03-03T06:39:35;27.98;;;17.48;;
35715;SDS011;21840;44.920;8.616;2023-03-03T06:42:01;36.67;;;18.25;;
35715;SDS011;21840;44.920;8.616;2023-03-03T06:44:26;29.70;;;17.92;;
35715;SDS011;21840;44.920;8.616;2023-03-03T06:46:52;28.15;;;17.05;;
35715;SDS011;21840;44.920;8.616;2023-03-03T06:49:17;28.45;;;17.10;;
35715;SDS011;21840;44.920;8.616;2023-03-03T06:51:43;31.08;;;16.98;;
35715;SDS011;21840;44.920;8.616;2023-03-03T06:54:11;26.27;;;16.77;;
35715;SDS011;21840;44.920;8.616;2023-03-03T06:56:41;27.23;;;17.08;;
35715;SDS011;21840;44.920;8.616;2023-03-03T06:59:14;30.85;;;16.67;;
35715;SDS011;21840;44.920;8.616;2023-03-03T07:01:45;42.67;;;19.38;;
35715;SDS011;21840;44.920;8.616;2023-03-03T07:04:20;35.95;;;17.65;;
35715;SDS011;21840;44.920;8.616;2023-03-03T07:06:46;32.25;;;17.27;;
35715;SDS011;21840;44.920;8.616;2023-03-03T07:09:14;25.88;;;16.17;;
35715;SDS011;21840;44.920;8.616;2023-03-03T07:11:45;29.20;;;18.63;;
35715;SDS011;21840;44.920;8.616;2023-03-03T07:14:15;31.45;;;17.70;;
35715;SDS011;21840;44.920;8.616;2023-03-03T07:16:42;47.75;;;17.33;;
35715;SDS011;21840;44.920;8.616;2023-03-03T07:19:22;35.10;;;17.75;;
35715;SDS011;21840;44.920;8.616;2023-03-03T07:22:19;41.28;;;18.15;;
35715;SDS011;21840;44.920;8.616;2023-03-03T07:24:56;37.35;;;16.85;;
35715;SDS011;21840;44.920;8.616;2023-03-03T07:27:26;25.75;;;17.10;;
35715;SDS011;21840;44.920;8.616;2023-03-03T07:30:38;30.42;;;18.10;;
35715;SDS011;21840;44.920;8.616;2023-03-03T07:32:48;37.42;;;17.85;;
35715;SDS011;21840;44.920;8.616;2023-03-03T07:35:24;34.83;;;16.48;;
35715;SDS011;21840;44.920;8.616;2023-03-03T07:40:49;34.47;;;16.38;;
35715;SDS011;21840;44.920;8.616;2023-03-03T07:48:38;29.55;;;18.08;;
35715;SDS011;21840;44.920;8.616;2023-03-03T07:51:13;27.67;;;17.55;;
35715;SDS011;21840;44.920;8.616;2023-03-03T07:53:46;28.02;;;17.38;;
35715;SDS011;21840;44.920;8.616;2023-03-03T07:56:16;31.52;;;17.80;;
35715;SDS011;21840;44.920;8.616;2023-03-03T07:58:47;27.05;;;17.08;;
35715;SDS011;21840;44.920;8.616;2023-03-03T08:07:08;30.63;;;18.30;;
35715;SDS011;21840;44.920;8.616;2023-03-03T08:09:56;32.35;;;19.08;;
35715;SDS011;21840;44.920;8.616;2023-03-03T08:15:09;31.75;;;17.95;;
35715;SDS011;21840;44.920;8.616;2023-03-03T08:17:40;29.13;;;16.95;;
35715;SDS011;21840;44.920;8.616;2023-03-03T08:23:08;28.75;;;17.83;;
35715;SDS011;21840;44.920;8.616;2023-03-03T08:25:33;34.45;;;18.00;;
35715;SDS011;21840;44.920;8.616;2023-03-03T08:27:59;34.00;;;17.77;;
35715;SDS011;21840;44.920;8.616;2023-03-03T08:30:24;33.38;;;17.20;;
35715;SDS011;21840;44.920;8.616;2023-03-03T08:32:50;30.85;;;16.42;;
35715;SDS011;21840;44.920;8.616;2023-03-03T08:35:15;28.52;;;17.15;;
35715;SDS011;21840;44.920;8.616;2023-03-03T08:37:41;28.35;;;18.25;;
35715;SDS011;21840;44.920;8.616;2023-03-03T08:40:06;26.88;;;17.80;;
35715;SDS011;21840;44.920;8.616;2023-03-03T08:42:32;30.38;;;17.38;;
35715;SDS011;21840;44.920;8.616;2023-03-03T08:44:58;28.58;;;17.73;;
35715;SDS011;21840;44.920;8.616;2023-03-03T08:47:24;27.17;;;16.85;;
35715;SDS011;21840;44.920;8.616;2023-03-03T08:49:50;29.02;;;17.48;;
35715;SDS011;21840;44.920;8.616;2023-03-03T08:52:15;28.15;;;17.10;;
35715;SDS011;21840;44.920;8.616;2023-03-03T08:54:41;30.58;;;17.35;;
35715;SDS011;21840;44.920;8.616;2023-03-03T08:57:06;30.65;;;17.75;;
35715;SDS011;21840;44.920;8.616;2023-03-03T08:59:32;27.88;;;16.25;;
35715;SDS011;21840;44.920;8.616;2023-03-03T09:02:02;25.23;;;15.85;;
35715;SDS011;21840;44.920;8.616;2023-03-03T09:04:27;26.42;;;16.30;;
35715;SDS011;21840;44.920;8.616;2023-03-03T09:06:53;26.52;;;15.57;;
35715;SDS011;21840;44.920;8.616;2023-03-03T09:09:18;25.30;;;15.80;;
35715;SDS011;21840;44.920;8.616;2023-03-03T09:11:44;24.70;;;14.60;;
35715;SDS011;21840;44.920;8.616;2023-03-03T09:14:12;22.05;;;13.95;;
35715;SDS011;21840;44.920;8.616;2023-03-03T09:19:28;31.50;;;15.48;;
35715;SDS011;21840;44.920;8.616;2023-03-03T09:22:10;30.95;;;15.18;;
35715;SDS011;21840;44.920;8.616;2023-03-03T09:24:43;30.20;;;14.05;;
35715;SDS011;21840;44.920;8.616;2023-03-03T09:27:21;21.13;;;13.65;;
35715;SDS011;21840;44.920;8.616;2023-03-03T09:29:54;20.30;;;13.55;;
35715;SDS011;21840;44.920;8.616;2023-03-03T09:34:53;31.48;;;15.75;;
35715;SDS011;21840;44.920;8.616;2023-03-03T09:37:22;27.30;;;15.68;;
35715;SDS011;21840;44.920;8.616;2023-03-03T09:39:55;30.73;;;15.98;;
35715;SDS011;21840;44.920;8.616;2023-03-03T09:51:19;32.83;;;14.60;;
35715;SDS011;21840;44.920;8.616;2023-03-03T09:56:46;22.92;;;14.02;;
35715;SDS011;21840;44.920;8.616;2023-03-03T10:12:32;23.60;;;14.02;;
35715;SDS011;21840;44.920;8.616;2023-03-03T10:15:11;32.78;;;14.05;;
35715;SDS011;21840;44.920;8.616;2023-03-03T10:36:54;29.48;;;16.83;;
35715;SDS011;21840;44.920;8.616;2023-03-03T10:50:09;41.90;;;18.40;;
35715;SDS011;21840;44.920;8.616;2023-03-03T10:55:31;37.03;;;17.08;;
35715;SDS011;21840;44.920;8.616;2023-03-03T11:06:05;27.63;;;17.38;;
35715;SDS011;21840;44.920;8.616;2023-03-03T11:08:54;27.05;;;15.82;;
35715;SDS011;21840;44.920;8.616;2023-03-03T11:16:20;77.35;;;21.50;;
35715;SDS011;21840;44.920;8.616;2023-03-03T11:22:01;26.20;;;14.77;;
35715;SDS011;21840;44.920;8.616;2023-03-03T11:30:01;22.23;;;11.88;;
35715;SDS011;21840;44.920;8.616;2023-03-03T11:32:45;18.10;;;12.00;;
35715;SDS011;21840;44.920;8.616;2023-03-03T11:35:28;18.63;;;10.38;;
35715;SDS011;21840;44.920;8.616;2023-03-03T11:43:26;20.40;;;11.75;;
35715;SDS011;21840;44.920;8.616;2023-03-03T11:46:08;25.48;;;11.48;;
35715;SDS011;21840;44.920;8.616;2023-03-03T11:48:54;18.08;;;11.95;;
35715;SDS011;21840;44.920;8.616;2023-03-03T11:51:33;21.35;;;12.65;;
35715;SDS011;21840;44.920;8.616;2023-03-03T12:05:17;22.58;;;12.10;;
35715;SDS011;21840;44.920;8.616;2023-03-03T12:16:25;23.73;;;12.00;;
35715;SDS011;21840;44.920;8.616;2023-03-03T12:27:17;25.80;;;14.95;;
35715;SDS011;21840;44.920;8.616;2023-03-03T12:32:51;22.77;;;13.82;;
35715;SDS011;21840;44.920;8.616;2023-03-03T12:40:58;24.80;;;14.18;;
35715;SDS011;21840;44.920;8.616;2023-03-03T12:46:08;21.02;;;12.60;;
35715;SDS011;21840;44.920;8.616;2023-03-03T12:48:44;22.02;;;14.93;;
35715;SDS011;21840;44.920;8.616;2023-03-03T12:56:55;20.27;;;13.23;;
35715;SDS011;21840;44.920;8.616;2023-03-03T13:02:04;25.10;;;13.55;;
35715;SDS011;21840;44.920;8.616;2023-03-03T13:04:55;22.05;;;13.40;;
35715;SDS011;21840;44.920;8.616;2023-03-03T13:07:30;51.00;;;16.05;;
35715;SDS011;21840;44.920;8.616;2023-03-03T13:12:52;65.63;;;16.77;;
35715;SDS011;21840;44.920;8.616;2023-03-03T13:15:57;22.17;;;13.50;;
35715;SDS011;21840;44.920;8.616;2023-03-03T13:21:21;26.33;;;12.88;;
35715;SDS011;21840;44.920;8.616;2023-03-03T13:26:34;31.07;;;11.97;;
35715;SDS011;21840;44.920;8.616;2023-03-03T13:31:38;14.02;;;6.95;;
35715;SDS011;21840;44.920;8.616;2023-03-03T13:34:16;18.80;;;8.63;;
35715;SDS011;21840;44.920;8.616;2023-03-03T13:37:00;11.80;;;7.70;;
35715;SDS011;21840;44.920;8.616;2023-03-03T13:39:32;12.65;;;8.82;;
35715;SDS011;21840;44.920;8.616;2023-03-03T13:44:50;27.45;;;11.27;;
35715;SDS011;21840;44.920;8.616;2023-03-03T13:47:20;112.43;;;16.52;;
35715;SDS011;21840;44.920;8.616;2023-03-03T13:56:08;15.57;;;8.07;;
35715;SDS011;21840;44.920;8.616;2023-03-03T13:59:13;18.55;;;9.20;;
35715;SDS011;21840;44.920;8.616;2023-03-03T14:07:24;23.15;;;8.18;;
35715;SDS011;21840;44.920;8.616;2023-03-03T14:10:02;13.98;;;6.70;;
35715;SDS011;21840;44.920;8.616;2023-03-03T14:15:10;20.90;;;7.68;;
35715;SDS011;21840;44.920;8.616;2023-03-03T14:17:54;13.40;;;7.35;;
35715;SDS011;21840;44.920;8.616;2023-03-03T14:20:31;10.88;;;7.15;;
35715;SDS011;21840;44.920;8.616;2023-03-03T14:26:06;11.95;;;7.07;;
35715;SDS011;21840;44.920;8.616;2023-03-03T14:28:40;20.67;;;8.60;;
35715;SDS011;21840;44.920;8.616;2023-03-03T14:36:41;10.98;;;6.93;;
35715;SDS011;21840;44.920;8.616;2023-03-03T14:50:44;15.52;;;7.43;;
35715;SDS011;21840;44.920;8.616;2023-03-03T14:56:16;15.35;;;6.75;;
35715;SDS011;21840;44.920;8.616;2023-03-03T14:58:51;12.45;;;4.95;;
35715;SDS011;21840;44.920;8.616;2023-03-03T15:01:31;7.80;;;4.57;;
35715;SDS011;21840;44.920;8.616;2023-03-03T15:06:36;10.13;;;6.40;;
35715;SDS011;21840;44.920;8.616;2023-03-03T15:12:23;8.43;;;5.30;;
35715;SDS011;21840;44.920;8.616;2023-03-03T15:17:38;13.02;;;5.63;;
35715;SDS011;21840;44.920;8.616;2023-03-03T15:25:51;11.68;;;6.32;;
35715;SDS011;21840;44.920;8.616;2023-03-03T15:31:08;11.55;;;4.65;;
35715;SDS011;21840;44.920;8.616;2023-03-03T15:33:43;11.88;;;4.90;;
35715;SDS011;21840;44.920;8.616;2023-03-03T15:41:39;11.77;;;6.17;;
35715;SDS011;21840;44.920;8.616;2023-03-03T15:44:17;14.50;;;7.28;;
35715;SDS011;21840;44.920;8.616;2023-03-03T16:01:05;12.50;;;7.20;;
35715;SDS011;21840;44.920;8.616;2023-03-03T16:03:46;12.95;;;6.75;;
35715;SDS011;21840;44.920;8.616;2023-03-03T16:06:23;14.23;;;7.53;;
35715;SDS011;21840;44.920;8.616;2023-03-03T16:09:02;10.93;;;7.22;;
35715;SDS011;21840;44.920;8.616;2023-03-03T16:31:21;13.02;;;6.57;;
35715;SDS011;21840;44.920;8.616;2023-03-03T16:34:00;10.73;;;5.43;;
35715;SDS011;21840;44.920;8.616;2023-03-03T16:39:20;13.50;;;5.82;;
35715;SDS011;21840;44.920;8.616;2023-03-03T16:42:02;9.73;;;6.20;;
35715;SDS011;21840;44.920;8.616;2023-03-03T16:47:52;10.23;;;6.15;;
35715;SDS011;21840;44.920;8.616;2023-03-03T16:50:38;13.05;;;6.45;;
35715;SDS011;21840;44.920;8.616;2023-03-03T16:56:22;12.10;;;5.78;;
35715;SDS011;21840;44.920;8.616;2023-03-03T17:07:02;19.10;;;8.05;;
35715;SDS011;21840;44.920;8.616;2023-03-03T17:12:18;16.20;;;8.65;;
35715;SDS011;21840;44.920;8.616;2023-03-03T17:14:53;18.20;;;8.63;;
35715;SDS011;21840;44.920;8.616;2023-03-03T17:20:18;19.40;;;7.97;;
35715;SDS011;21840;44.920;8.616;2023-03-03T17:37:01;12.55;;;6.70;;
35715;SDS011;21840;44.920;8.616;2023-03-03T17:42:38;15.83;;;7.27;;
35715;SDS011;21840;44.920;8.616;2023-03-03T17:45:26;16.80;;;8.07;;
35715;SDS011;21840;44.920;8.616;2023-03-03T17:55:50;18.23;;;8.32;;
35715;SDS011;21840;44.920;8.616;2023-03-03T18:01:24;27.90;;;9.73;;
35715;SDS011;21840;44.920;8.616;2023-03-03T18:03:59;16.98;;;8.77;;
35715;SDS011;21840;44.920;8.616;2023-03-03T18:12:46;28.88;;;12.38;;
35715;SDS011;21840;44.920;8.616;2023-03-03T18:21:20;17.35;;;10.65;;
35715;SDS011;21840;44.920;8.616;2023-03-03T18:23:49;19.13;;;10.40;;
35715;SDS011;21840;44.920;8.616;2023-03-03T18:29:12;20.20;;;9.65;;
35715;SDS011;21840;44.920;8.616;2023-03-03T18:37:07;16.17;;;9.35;;
35715;SDS011;21840;44.920;8.616;2023-03-03T18:39:34;15.77;;;9.40;;
35715;SDS011;21840;44.920;8.616;2023-03-03T18:44:50;17.40;;;10.60;;
35715;SDS011;21840;44.920;8.616;2023-03-03T18:47:16;31.90;;;12.60;;
35715;SDS011;21840;44.920;8.616;2023-03-03T18:49:48;23.98;;;13.27;;
35715;SDS011;21840;44.920;8.616;2023-03-03T18:52:32;20.48;;;12.07;;
35715;SDS011;21840;44.920;8.616;2023-03-03T18:57:33;21.85;;;11.38;;
35715;SDS011;21840;44.920;8.616;2023-03-03T19:02:54;20.65;;;12.27;;
35715;SDS011;21840;44.920;8.616;2023-03-03T19:05:26;18.33;;;10.98;;
35715;SDS011;21840;44.920;8.616;2023-03-03T19:08:15;27.83;;;12.20;;
35715;SDS011;21840;44.920;8.616;2023-03-03T19:10:49;24.48;;;11.85;;
35715;SDS011;21840;44.920;8.616;2023-03-03T19:16:07;30.63;;;15.40;;
35715;SDS011;21840;44.920;8.616;2023-03-03T19:31:50;23.48;;;14.00;;
35715;SDS011;21840;44.920;8.616;2023-03-03T19:59:19;27.70;;;13.68;;
35715;SDS011;21840;44.920;8.616;2023-03-03T20:05:12;17.35;;;11.65;;
35715;SDS011;21840;44.920;8.616;2023-03-03T20:08:07;24.13;;;13.35;;
35715;SDS011;21840;44.920;8.616;2023-03-03T20:10:41;22.87;;;13.30;;
35715;SDS011;21840;44.920;8.616;2023-03-03T20:26:57;29.38;;;15.25;;
35715;SDS011;21840;44.920;8.616;2023-03-03T20:32:11;24.80;;;13.65;;
35715;SDS011;21840;44.920;8.616;2023-03-03T20:37:58;24.83;;;13.95;;
35715;SDS011;21840;44.920;8.616;2023-03-03T20:40:49;27.52;;;15.90;;
35715;SDS011;21840;44.920;8.616;2023-03-03T20:51:46;29.33;;;15.05;;
35715;SDS011;21840;44.920;8.616;2023-03-03T21:08:44;22.92;;;14.73;;
35715;SDS011;21840;44.920;8.616;2023-03-03T21:11:19;28.13;;;15.98;;
35715;SDS011;21840;44.920;8.616;2023-03-03T21:14:16;25.40;;;15.68;;
35715;SDS011;21840;44.920;8.616;2023-03-03T21:16:54;26.23;;;15.73;;
35715;SDS011;21840;44.920;8.616;2023-03-03T21:19:24;30.33;;;16.58;;
35715;SDS011;21840;44.920;8.616;2023-03-03T21:21:55;31.23;;;17.23;;
35715;SDS011;21840;44.920;8.616;2023-03-03T21:24:21;29.60;;;15.77;;
35715;SDS011;21840;44.920;8.616;2023-03-03T21:29:27;31.48;;;17.52;;
35715;SDS011;21840;44.920;8.616;2023-03-03T21:31:55;30.40;;;16.85;;
35715;SDS011;21840;44.920;8.616;2023-03-03T21:34:24;28.55;;;16.70;;
35715;SDS011;21840;44.920;8.616;2023-03-03T21:36:52;29.23;;;16.27;;
35715;SDS011;21840;44.920;8.616;2023-03-03T21:39:21;27.35;;;16.70;;
35715;SDS011;21840;44.920;8.616;2023-03-03T21:42:11;32.30;;;16.75;;
35715;SDS011;21840;44.920;8.616;2023-03-03T21:44:48;25.80;;;15.88;;
35715;SDS011;21840;44.920;8.616;2023-03-03T21:47:16;30.67;;;17.00;;
35715;SDS011;21840;44.920;8.616;2023-03-03T21:49:43;35.65;;;17.02;;
35715;SDS011;21840;44.920;8.616;2023-03-03T21:52:11;27.65;;;15.60;;
35715;SDS011;21840;44.920;8.616;2023-03-03T21:54:38;33.10;;;16.58;;
35715;SDS011;21840;44.920;8.616;2023-03-03T21:57:04;36.88;;;15.60;;
35715;SDS011;21840;44.920;8.616;2023-03-03T21:59:29;31.35;;;15.57;;
35715;SDS011;21840;44.920;8.616;2023-03-03T22:01:55;33.75;;;16.65;;
35715;SDS011;21840;44.920;8.616;2023-03-03T22:04:20;29.38;;;14.68;;